Time;durP1;ratioP1;P1;durP2;ratioP2;P2;SDS_P1;SDS_P2;PMS_P1;PMS_P2;Temp;Humidity;BMP_temperature;BMP_pressure;BME280_temperature;BME280_humidity;BME280_pressure;Samples;Min_cycle;Max_cycle;Signal;HPM_P1;HPM_P2
2021/09/07 00:00:10;;;;;;;17.50;14.63;;;21.10;98.40;;;;;;6154411;23;20774;-80
2021/09/07 00:02:38;;;;;;;20.30;15.30;;;21.10;98.30;;;;;;6180516;23;20414;-80
2021/09/07 00:05:26;;;;;;;18.47;15.10;;;21.10;98.00;;;;;;6198438;23;20519;-81
2021/09/07 00:07:59;;;;;;;19.30;16.63;;;20.80;98.10;;;;;;6206424;23;20824;-80
2021/09/07 00:10:33;;;;;;;17.73;15.93;;;20.70;98.50;;;;;;6207744;23;20496;-81
2021/09/07 00:13:11;;;;;;;17.43;15.27;;;20.60;99.00;;;;;;6207817;23;20405;-79
2021/09/07 00:15:38;;;;;;;15.40;13.77;;;20.60;98.90;;;;;;6181263;23;20874;-80
2021/09/07 00:18:07;;;;;;;16.13;14.43;;;20.70;98.80;;;;;;6177724;23;20414;-81
2021/09/07 00:20:38;;;;;;;16.37;14.27;;;20.70;98.60;;;;;;6178264;23;20430;-82
2021/09/07 00:23:07;;;;;;;15.67;13.87;;;20.40;99.00;;;;;;6177365;23;20416;-81
2021/09/07 00:25:37;;;;;;;16.50;14.50;;;20.40;99.20;;;;;;6178706;23;20479;-81
2021/09/07 00:28:08;;;;;;;15.87;14.00;;;20.20;99.30;;;;;;6179293;23;20453;-81
2021/09/07 00:30:42;;;;;;;15.50;13.90;;;20.00;99.80;;;;;;6177951;23;21092;-81
2021/09/07 00:33:09;;;;;;;15.40;13.73;;;20.10;99.60;;;;;;6178265;23;20725;-81
2021/09/07 00:35:52;;;;;;;17.47;14.33;;;20.10;99.70;;;;;;6175097;23;20442;-82
2021/09/07 00:38:19;;;;;;;18.87;13.93;;;20.10;99.70;;;;;;6177878;23;20521;-82
2021/09/07 00:41:06;;;;;;;15.83;12.63;;;20.00;99.70;;;;;;6179746;23;20422;-82
2021/09/07 00:43:35;;;;;;;18.60;13.63;;;19.90;99.90;;;;;;6177828;23;21025;-82
2021/09/07 00:46:23;;;;;;;20.37;15.77;;;19.90;99.90;;;;;;6178055;23;21257;-81
2021/09/07 00:48:54;;;;;;;19.73;14.80;;;19.90;99.90;;;;;;6178825;23;20432;-81
2021/09/07 00:51:26;;;;;;;18.97;15.17;;;19.90;99.90;;;;;;6176167;23;20398;-81
2021/09/07 00:53:56;;;;;;;25.00;14.90;;;19.90;99.90;;;;;;6177427;23;20752;-80
2021/09/07 00:56:26;;;;;;;16.90;14.40;;;19.90;99.90;;;;;;6176719;23;20414;-81
2021/09/07 00:58:56;;;;;;;18.00;15.20;;;19.80;99.90;;;;;;6175604;23;20866;-81
2021/09/07 01:01:50;;;;;;;18.13;15.07;;;19.80;99.90;;;;;;6175473;23;20905;-81
2021/09/07 01:04:17;;;;;;;15.47;13.73;;;19.80;99.90;;;;;;6175493;23;20453;-81
2021/09/07 01:06:44;;;;;;;16.53;14.50;;;19.70;99.90;;;;;;6178026;23;20412;-82
2021/09/07 01:09:13;;;;;;;14.53;13.00;;;19.90;99.90;;;;;;6175800;23;20422;-82
2021/09/07 01:11:40;;;;;;;15.97;14.00;;;19.90;99.90;;;;;;6178733;23;20410;-79
2021/09/07 01:14:06;;;;;;;17.00;14.20;;;19.80;99.90;;;;;;6177306;23;21077;-80
2021/09/07 01:16:33;;;;;;;20.60;15.00;;;19.70;99.80;;;;;;6180405;23;21339;-82
2021/09/07 01:19:00;;;;;;;17.90;14.50;;;19.60;99.50;;;;;;6184641;23;20406;-80
2021/09/07 01:21:27;;;;;;;18.40;15.07;;;19.60;99.90;;;;;;6186473;23;20780;-78
2021/09/07 01:23:54;;;;;;;17.03;15.20;;;19.50;99.20;;;;;;6184730;23;20426;-79
2021/09/07 01:26:22;;;;;;;15.80;13.90;;;19.60;99.20;;;;;;6184143;23;20451;-79
2021/09/07 01:28:49;;;;;;;15.80;13.70;;;19.50;99.30;;;;;;6180190;23;20414;-80
2021/09/07 01:31:16;;;;;;;15.63;14.00;;;19.40;99.50;;;;;;6180465;23;20405;-80
2021/09/07 01:33:47;;;;;;;18.17;14.60;;;19.30;99.90;;;;;;6177110;23;20416;-80
2021/09/07 01:36:15;;;;;;;17.03;14.60;;;19.30;99.90;;;;;;6177112;23;20410;-82
2021/09/07 01:38:42;;;;;;;17.67;14.23;;;19.30;99.90;;;;;;6177073;23;20409;-81
2021/09/07 01:41:10;;;;;;;15.53;13.87;;;19.30;99.90;;;;;;6177160;23;20944;-80
2021/09/07 01:43:36;;;;;;;15.87;13.53;;;19.40;99.90;;;;;;6177719;23;20416;-80
2021/09/07 01:46:03;;;;;;;16.10;13.90;;;19.30;99.90;;;;;;6179886;23;20437;-81
2021/09/07 01:48:31;;;;;;;16.20;12.80;;;19.40;99.90;;;;;;6179201;23;20441;-82
2021/09/07 01:50:57;;;;;;;16.13;14.37;;;19.60;99.90;;;;;;6176128;23;20414;-80
2021/09/07 01:53:24;;;;;;;17.07;14.10;;;19.60;99.90;;;;;;6176973;23;20413;-80
2021/09/07 01:55:51;;;;;;;15.77;14.17;;;19.50;99.90;;;;;;6178363;23;20438;-78
2021/09/07 01:58:17;;;;;;;15.60;13.60;;;19.60;99.90;;;;;;6179232;23;20420;-80
2021/09/07 02:00:44;;;;;;;17.43;14.13;;;19.40;99.90;;;;;;6180697;23;20441;-81
2021/09/07 02:03:11;;;;;;;15.20;13.63;;;19.40;99.90;;;;;;6180804;23;20429;-80
2021/09/07 02:05:38;;;;;;;16.00;14.40;;;19.50;99.90;;;;;;6179542;23;20457;-80
2021/09/07 02:08:05;;;;;;;16.93;13.90;;;19.60;99.90;;;;;;6178404;23;20470;-80
2021/09/07 02:10:31;;;;;;;18.07;14.37;;;19.60;99.90;;;;;;6179044;23;20467;-81
2021/09/07 02:12:58;;;;;;;15.40;13.70;;;19.50;99.90;;;;;;6179960;23;20468;-79
2021/09/07 02:15:25;;;;;;;16.87;14.10;;;19.30;99.90;;;;;;6181332;23;20434;-80
2021/09/07 02:17:51;;;;;;;16.37;14.60;;;19.10;99.90;;;;;;6181123;23;20529;-83
2021/09/07 02:20:18;;;;;;;18.90;15.10;;;18.90;99.90;;;;;;6180967;23;20414;-81
2021/09/07 02:22:45;;;;;;;17.57;14.60;;;18.70;99.90;;;;;;6178355;23;20817;-81
2021/09/07 02:25:11;;;;;;;19.80;15.67;;;18.60;99.90;;;;;;6184050;23;20954;-81
2021/09/07 02:27:38;;;;;;;15.77;13.73;;;18.60;99.90;;;;;;6186369;23;20405;-79
2021/09/07 02:30:07;;;;;;;17.57;15.67;;;18.60;99.90;;;;;;6179281;23;20410;-80
2021/09/07 02:32:34;;;;;;;17.83;14.10;;;18.70;99.90;;;;;;6180412;23;20412;-80
2021/09/07 02:35:00;;;;;;;15.90;13.90;;;18.60;99.90;;;;;;6178302;23;20445;-80
2021/09/07 02:37:27;;;;;;;19.50;15.67;;;18.80;99.90;;;;;;6178741;23;20421;-80
2021/09/07 02:39:54;;;;;;;16.37;14.00;;;18.90;99.90;;;;;;6179116;23;20500;-79
2021/09/07 02:42:20;;;;;;;18.13;14.77;;;18.80;99.90;;;;;;6178766;23;20758;-80
2021/09/07 02:44:47;;;;;;;17.13;14.73;;;18.70;99.90;;;;;;6178754;23;20441;-80
2021/09/07 02:47:14;;;;;;;16.33;14.63;;;18.70;99.90;;;;;;6178720;23;20412;-80
2021/09/07 02:49:40;;;;;;;17.20;14.50;;;18.60;99.90;;;;;;6179365;23;20418;-81
2021/09/07 02:52:07;;;;;;;16.33;14.57;;;18.60;99.90;;;;;;6180155;23;20391;-81
2021/09/07 02:54:34;;;;;;;17.10;14.37;;;18.50;99.90;;;;;;6179002;23;20437;-79
2021/09/07 02:57:00;;;;;;;18.20;14.73;;;18.60;99.90;;;;;;6180813;23;20406;-80
2021/09/07 02:59:27;;;;;;;15.20;13.63;;;18.60;99.90;;;;;;6179770;23;20418;-80
2021/09/07 03:01:53;;;;;;;18.10;14.93;;;18.60;99.90;;;;;;6182325;23;20970;-80
2021/09/07 03:04:20;;;;;;;17.70;12.80;;;18.50;99.90;;;;;;6179171;23;20525;-80
2021/09/07 03:06:48;;;;;;;16.37;14.63;;;18.40;99.90;;;;;;6180389;23;20430;-80
2021/09/07 03:09:15;;;;;;;16.37;13.60;;;18.20;99.90;;;;;;6180430;23;21368;-80
2021/09/07 03:11:42;;;;;;;17.67;15.00;;;18.20;99.90;;;;;;6179227;23;20406;-81
2021/09/07 03:14:08;;;;;;;15.47;13.80;;;18.10;99.90;;;;;;6179337;23;20436;-79
2021/09/07 03:16:35;;;;;;;18.13;13.70;;;18.20;99.90;;;;;;6180943;23;20424;-80
2021/09/07 03:19:03;;;;;;;18.53;14.53;;;18.40;99.90;;;;;;6181281;23;20417;-81
2021/09/07 03:21:30;;;;;;;14.17;12.73;;;18.40;99.90;;;;;;6179872;23;20421;-81
2021/09/07 03:23:56;;;;;;;14.83;12.93;;;18.40;99.90;;;;;;6179976;23;20440;-81
2021/09/07 03:26:23;;;;;;;14.70;12.97;;;18.40;99.90;;;;;;6182343;23;20533;-81
2021/09/07 03:28:50;;;;;;;18.70;15.17;;;18.30;99.90;;;;;;6186293;23;20410;-80
2021/09/07 03:31:16;;;;;;;17.30;14.50;;;18.20;99.90;;;;;;6202332;23;20444;-80
2021/09/07 03:33:43;;;;;;;18.60;14.07;;;18.20;99.90;;;;;;6203496;23;20405;-80
2021/09/07 03:36:10;;;;;;;19.40;14.60;;;18.20;99.90;;;;;;6204478;23;20413;-80
2021/09/07 03:38:36;;;;;;;17.80;14.93;;;18.10;99.90;;;;;;6198282;23;20889;-80
2021/09/07 03:41:03;;;;;;;16.27;14.00;;;17.90;99.90;;;;;;6179430;23;20410;-81
2021/09/07 03:43:30;;;;;;;16.60;14.80;;;17.80;99.90;;;;;;6178615;23;20410;-80
2021/09/07 03:45:56;;;;;;;15.40;12.83;;;17.80;99.90;;;;;;6181301;23;20446;-81
2021/09/07 03:48:23;;;;;;;18.20;13.43;;;17.80;99.90;;;;;;6176985;23;20441;-80
2021/09/07 03:50:50;;;;;;;19.47;13.70;;;17.70;99.90;;;;;;6175628;23;20425;-81
2021/09/07 03:53:16;;;;;;;17.23;14.53;;;17.70;99.90;;;;;;6176777;23;20398;-81
2021/09/07 03:55:43;;;;;;;16.73;14.70;;;17.60;99.90;;;;;;6178725;23;20445;-82
2021/09/07 03:58:09;;;;;;;20.70;15.00;;;17.70;99.90;;;;;;6178238;23;20739;-80
2021/09/07 04:00:36;;;;;;;16.33;13.70;;;17.70;99.90;;;;;;6177632;23;20409;-83
2021/09/07 04:03:12;;;;;;;18.80;14.70;;;17.80;99.90;;;;;;6177456;23;20406;-82
2021/09/07 04:05:40;;;;;;;17.03;14.20;;;17.80;99.90;;;;;;6177511;23;20683;-81
2021/09/07 04:08:07;;;;;;;15.93;14.13;;;17.80;99.90;;;;;;6175099;23;20413;-80
2021/09/07 04:10:34;;;;;;;16.33;12.87;;;17.80;99.90;;;;;;6178788;23;20410;-82
2021/09/07 04:13:00;;;;;;;14.87;12.60;;;17.70;99.90;;;;;;6178533;23;20410;-82
2021/09/07 04:15:27;;;;;;;15.70;13.37;;;17.70;99.90;;;;;;6177659;23;20444;-80
2021/09/07 04:17:54;;;;;;;15.30;13.53;;;18.00;99.90;;;;;;6179288;23;20501;-81
2021/09/07 04:20:21;;;;;;;18.67;15.13;;;18.10;99.90;;;;;;6177705;23;20425;-82
2021/09/07 04:22:48;;;;;;;17.53;13.33;;;18.00;99.90;;;;;;6184243;23;20754;-81
2021/09/07 04:25:16;;;;;;;17.23;15.33;;;17.90;99.90;;;;;;6185241;23;20450;-80
2021/09/07 04:27:42;;;;;;;20.87;12.97;;;17.90;99.90;;;;;;6186295;23;20815;-81
2021/09/07 04:30:10;;;;;;;15.50;13.00;;;17.90;99.90;;;;;;6186090;23;20409;-81
2021/09/07 04:32:38;;;;;;;15.60;12.80;;;17.80;99.90;;;;;;6182707;23;21251;-80
2021/09/07 04:35:05;;;;;;;14.33;12.83;;;17.80;99.90;;;;;;6181308;23;20437;-80
2021/09/07 04:37:32;;;;;;;16.67;13.33;;;17.90;99.90;;;;;;6182632;23;21238;-80
2021/09/07 04:39:59;;;;;;;15.20;13.17;;;17.90;99.90;;;;;;6181238;23;20406;-81
2021/09/07 04:42:26;;;;;;;14.97;13.30;;;17.90;99.90;;;;;;6177200;23;20416;-80
2021/09/07 04:44:54;;;;;;;14.13;12.60;;;17.80;99.90;;;;;;6180437;23;20426;-81
2021/09/07 04:47:21;;;;;;;14.97;13.37;;;17.80;99.90;;;;;;6182809;23;20437;-81
2021/09/07 04:49:47;;;;;;;15.20;13.10;;;17.90;99.90;;;;;;6180693;23;20405;-82
2021/09/07 04:52:14;;;;;;;16.40;13.40;;;17.90;99.90;;;;;;6182708;23;20763;-81
2021/09/07 04:54:42;;;;;;;17.57;13.30;;;17.90;99.90;;;;;;6182198;23;20516;-82
2021/09/07 04:57:09;;;;;;;15.83;13.80;;;18.00;99.90;;;;;;6181167;23;20485;-77
2021/09/07 04:59:35;;;;;;;16.13;13.40;;;18.10;99.90;;;;;;6182142;23;20846;-81
2021/09/07 05:02:02;;;;;;;15.97;14.27;;;18.20;99.90;;;;;;6178583;23;20505;-82
2021/09/07 05:04:29;;;;;;;16.50;13.83;;;18.20;99.90;;;;;;6199783;23;20496;-81
2021/09/07 05:06:57;;;;;;;17.40;14.37;;;18.10;99.90;;;;;;6183166;23;20433;-80
2021/09/07 05:09:23;;;;;;;17.03;15.20;;;18.30;99.90;;;;;;6181536;23;20406;-79
2021/09/07 05:11:50;;;;;;;16.47;14.20;;;18.20;99.90;;;;;;6180970;23;20401;-81
2021/09/07 05:14:17;;;;;;;18.00;14.67;;;18.10;99.90;;;;;;6182179;23;20436;-80
2021/09/07 05:16:43;;;;;;;16.83;15.03;;;18.10;99.90;;;;;;6186780;23;20421;-80
2021/09/07 05:19:10;;;;;;;15.30;13.30;;;18.10;99.90;;;;;;6184464;23;21496;-80
2021/09/07 05:21:37;;;;;;;14.47;12.97;;;18.20;99.90;;;;;;6180294;23;20420;-80
2021/09/07 05:24:04;;;;;;;16.30;14.60;;;18.30;99.90;;;;;;6181236;23;20488;-80
2021/09/07 05:26:34;;;;;;;28.43;21.27;;;18.20;99.90;;;;;;6180242;23;20441;-81
2021/09/07 05:29:01;;;;;;;17.00;13.27;;;18.20;99.90;;;;;;6181657;23;20410;-79
2021/09/07 05:31:28;;;;;;;14.07;12.30;;;18.30;99.90;;;;;;6156814;23;20894;-80
2021/09/07 05:33:55;;;;;;;16.60;13.33;;;18.30;99.90;;;;;;6182381;23;20453;-79
2021/09/07 05:36:21;;;;;;;15.10;13.20;;;18.30;99.90;;;;;;6181227;23;20766;-80
2021/09/07 05:38:48;;;;;;;18.00;13.40;;;18.40;99.90;;;;;;6182162;23;20416;-79
2021/09/07 05:41:15;;;;;;;16.20;12.43;;;18.20;99.90;;;;;;6180684;23;20449;-80
2021/09/07 05:43:45;;;;;;;17.97;14.20;;;18.20;99.90;;;;;;6176529;23;20870;-79
2021/09/07 05:46:12;;;;;;;18.00;14.00;;;18.10;99.90;;;;;;6184910;23;20493;-81
2021/09/07 05:48:39;;;;;;;15.90;14.20;;;17.90;99.90;;;;;;6180808;23;20478;-80
2021/09/07 05:51:06;;;;;;;15.90;13.63;;;17.90;99.90;;;;;;6180964;23;20421;-79
2021/09/07 05:53:33;;;;;;;17.10;13.90;;;17.90;99.90;;;;;;6181041;23;20386;-80
2021/09/07 05:55:59;;;;;;;18.00;13.50;;;18.10;99.90;;;;;;6181646;23;20434;-80
2021/09/07 05:58:27;;;;;;;16.63;13.93;;;18.10;99.90;;;;;;6181183;23;21154;-80
2021/09/07 06:00:53;;;;;;;16.50;13.67;;;18.10;99.90;;;;;;6183470;23;20768;-81
2021/09/07 06:03:21;;;;;;;15.20;13.60;;;18.20;99.90;;;;;;6180569;23;20410;-79
2021/09/07 06:05:48;;;;;;;17.63;15.43;;;18.10;99.90;;;;;;6180156;23;20477;-80
2021/09/07 06:08:15;;;;;;;18.83;13.37;;;18.10;99.90;;;;;;6183101;23;20718;-80
2021/09/07 06:10:42;;;;;;;15.67;12.97;;;18.20;99.90;;;;;;6181287;23;20464;-80
2021/09/07 06:13:09;;;;;;;20.13;14.40;;;18.00;99.90;;;;;;6181781;23;20464;-80
2021/09/07 06:15:36;;;;;;;18.90;14.10;;;17.90;99.90;;;;;;6181986;23;20508;-81
2021/09/07 06:18:02;;;;;;;15.90;13.10;;;17.90;99.90;;;;;;6182209;23;20477;-80
2021/09/07 06:20:29;;;;;;;21.20;15.67;;;17.80;99.90;;;;;;6180522;23;20477;-81
2021/09/07 06:22:57;;;;;;;18.80;14.70;;;17.90;99.90;;;;;;6181131;23;20474;-81
2021/09/07 06:25:24;;;;;;;18.43;15.47;;;17.80;99.90;;;;;;6180916;23;20785;-82
2021/09/07 06:27:50;;;;;;;20.67;14.97;;;17.90;99.90;;;;;;6178391;23;20442;-82
2021/09/07 06:30:17;;;;;;;16.03;14.27;;;17.90;99.90;;;;;;6177801;23;20445;-82
2021/09/07 06:32:44;;;;;;;16.53;14.30;;;18.10;99.90;;;;;;6179529;23;20405;-81
2021/09/07 06:35:11;;;;;;;18.93;14.93;;;18.10;99.90;;;;;;6177815;23;20438;-81
2021/09/07 06:37:38;;;;;;;21.77;14.40;;;18.10;99.90;;;;;;6178664;23;20755;-81
2021/09/07 06:40:09;;;;;;;19.90;13.87;;;18.10;99.90;;;;;;6177665;23;20417;-81
2021/09/07 06:42:36;;;;;;;16.53;13.90;;;18.10;99.90;;;;;;6181462;23;20452;-80
2021/09/07 06:45:03;;;;;;;17.10;13.43;;;18.10;99.90;;;;;;6179730;23;20548;-80
2021/09/07 06:47:30;;;;;;;17.20;14.63;;;18.20;99.90;;;;;;6181554;23;20442;-81
2021/09/07 06:50:00;;;;;;;16.47;14.63;;;18.30;99.90;;;;;;6185349;23;20418;-79
2021/09/07 06:52:28;;;;;;;15.33;13.20;;;18.50;99.90;;;;;;6180668;23;20539;-80
2021/09/07 06:54:55;;;;;;;22.87;16.10;;;18.50;99.90;;;;;;6178951;23;20520;-82
2021/09/07 06:57:21;;;;;;;20.70;15.83;;;18.30;99.90;;;;;;6179219;23;20757;-80
2021/09/07 06:59:48;;;;;;;19.20;15.23;;;18.30;99.90;;;;;;6179542;23;20588;-81
2021/09/07 07:02:15;;;;;;;18.70;15.07;;;18.30;99.90;;;;;;6183450;23;20420;-81
2021/09/07 07:04:42;;;;;;;16.70;14.70;;;18.50;99.90;;;;;;6179311;23;20483;-80
2021/09/07 07:07:09;;;;;;;24.50;16.90;;;18.60;99.90;;;;;;6182833;23;20485;-82
2021/09/07 07:09:36;;;;;;;17.23;15.23;;;18.60;99.90;;;;;;6179856;23;20485;-81
2021/09/07 07:12:03;;;;;;;17.90;14.37;;;18.40;99.90;;;;;;6182575;23;20417;-82
2021/09/07 07:14:30;;;;;;;18.50;16.10;;;18.20;99.90;;;;;;6179519;23;20425;-81
2021/09/07 07:16:56;;;;;;;18.80;16.13;;;18.40;99.90;;;;;;6180094;23;20414;-82
2021/09/07 07:19:23;;;;;;;19.90;15.00;;;18.50;99.90;;;;;;6180467;23;20417;-82
2021/09/07 07:21:49;;;;;;;19.90;15.50;;;18.40;99.90;;;;;;6179545;23;20421;-81
2021/09/07 07:24:17;;;;;;;18.30;14.80;;;18.50;99.90;;;;;;6179644;23;20443;-81
2021/09/07 07:27:02;;;;;;;19.20;16.60;;;18.50;99.90;;;;;;6180503;23;20441;-79
2021/09/07 07:29:28;;;;;;;18.53;16.20;;;18.50;99.90;;;;;;6181495;23;20417;-81
2021/09/07 07:31:55;;;;;;;20.23;15.77;;;18.60;99.90;;;;;;6192868;23;20454;-82
2021/09/07 07:34:22;;;;;;;21.63;16.10;;;18.80;99.90;;;;;;6201841;23;20746;-83
2021/09/07 07:36:53;;;;;;;21.53;16.47;;;19.20;99.90;;;;;;6202261;23;20409;-81
2021/09/07 07:39:21;;;;;;;17.53;15.53;;;19.30;99.90;;;;;;6202988;23;20890;-80
2021/09/07 07:41:47;;;;;;;19.90;15.83;;;19.40;99.90;;;;;;6203607;23;20498;-82
2021/09/07 07:44:17;;;;;;;18.77;15.40;;;19.30;99.80;;;;;;6206122;23;20924;-82
2021/09/07 07:46:47;;;;;;;22.17;16.13;;;19.00;99.90;;;;;;6230894;23;20487;-80
2021/09/07 07:49:21;;;;;;;23.07;16.23;;;19.30;99.90;;;;;;6213599;23;20419;-81
2021/09/07 07:51:49;;;;;;;18.17;15.53;;;19.40;99.90;;;;;;6209697;23;20419;-81
2021/09/07 07:54:16;;;;;;;18.37;16.23;;;19.40;99.70;;;;;;6203460;23;20436;-81
2021/09/07 07:56:43;;;;;;;18.30;15.70;;;19.50;99.40;;;;;;6181275;23;20492;-81
2021/09/07 07:59:09;;;;;;;19.53;16.47;;;19.60;99.20;;;;;;6182530;23;20411;-81
2021/09/07 08:01:36;;;;;;;20.20;16.60;;;19.70;99.20;;;;;;6183634;23;20740;-81
2021/09/07 08:04:03;;;;;;;22.37;16.87;;;19.80;99.20;;;;;;6182255;23;20497;-81
2021/09/07 08:06:30;;;;;;;21.10;17.10;;;19.70;99.10;;;;;;6189086;23;20877;-80
2021/09/07 08:08:57;;;;;;;20.57;16.60;;;19.60;99.30;;;;;;6189819;23;21037;-82
2021/09/07 08:11:23;;;;;;;21.20;16.33;;;19.70;99.50;;;;;;6190389;23;20407;-80
2021/09/07 08:13:51;;;;;;;19.10;15.40;;;19.80;99.20;;;;;;6187087;23;20489;-81
2021/09/07 08:16:19;;;;;;;19.30;16.03;;;19.50;99.10;;;;;;6182951;23;20565;-81
2021/09/07 08:18:48;;;;;;;19.60;16.23;;;19.80;98.70;;;;;;6178621;23;20464;-82
2021/09/07 08:21:15;;;;;;;25.07;16.93;;;20.20;98.30;;;;;;6177989;23;20414;-80
2021/09/07 08:23:41;;;;;;;22.83;16.17;;;20.30;97.80;;;;;;6179197;23;20397;-81
2021/09/07 08:26:08;;;;;;;20.97;15.40;;;20.30;97.80;;;;;;6178027;23;20493;-82
2021/09/07 08:28:35;;;;;;;20.87;15.87;;;20.20;98.00;;;;;;6175530;23;20413;-82
2021/09/07 08:31:01;;;;;;;20.60;17.00;;;20.30;98.00;;;;;;6170146;23;20436;-80
2021/09/07 08:33:28;;;;;;;21.30;15.87;;;20.40;97.50;;;;;;6170497;23;20390;-81
2021/09/07 08:35:55;;;;;;;22.60;17.33;;;20.40;97.60;;;;;;6177293;23;20893;-80
2021/09/07 08:38:24;;;;;;;23.13;16.20;;;20.50;97.60;;;;;;6175630;23;20517;-80
2021/09/07 08:40:51;;;;;;;18.23;16.30;;;20.60;97.70;;;;;;6177496;23;20852;-81
2021/09/07 08:43:22;;;;;;;24.70;17.10;;;20.60;97.60;;;;;;6176243;23;20406;-81
2021/09/07 08:45:57;;;;;;;19.50;16.10;;;20.80;97.20;;;;;;6178326;23;20449;-83
2021/09/07 08:48:25;;;;;;;17.73;15.40;;;20.90;97.10;;;;;;6176313;23;20441;-80
2021/09/07 08:50:54;;;;;;;22.30;16.87;;;21.20;96.50;;;;;;6176847;23;20401;-82
2021/09/07 08:53:28;;;;;;;19.60;16.77;;;21.30;96.10;;;;;;6177218;23;20401;-81
2021/09/07 08:55:55;;;;;;;25.93;17.37;;;21.50;95.50;;;;;;6177179;23;20941;-81
2021/09/07 08:58:22;;;;;;;22.93;17.90;;;21.50;95.30;;;;;;6174885;23;20414;-80
2021/09/07 09:00:49;;;;;;;23.63;17.07;;;21.80;95.20;;;;;;6177057;23;20410;-80
2021/09/07 09:03:17;;;;;;;24.40;17.20;;;22.10;94.50;;;;;;6176436;23;20923;-82
2021/09/07 09:05:50;;;;;;;20.40;16.43;;;22.30;93.80;;;;;;6177547;23;20434;-80
2021/09/07 09:08:19;;;;;;;20.10;16.60;;;22.40;93.50;;;;;;6176123;23;20436;-80
2021/09/07 09:10:46;;;;;;;21.13;16.70;;;22.30;93.30;;;;;;6164235;23;20438;-80
2021/09/07 09:13:15;;;;;;;22.80;16.60;;;22.20;93.80;;;;;;6164553;23;20870;-80
2021/09/07 09:16:06;;;;;;;20.20;15.70;;;22.20;94.00;;;;;;6173166;23;20445;-81
2021/09/07 09:18:36;;;;;;;22.23;17.43;;;21.90;94.30;;;;;;6177299;23;20417;-80
2021/09/07 09:21:23;;;;;;;22.63;16.07;;;22.20;94.00;;;;;;6177673;23;20414;-80
2021/09/07 09:24:14;;;;;;;22.47;16.80;;;22.30;94.20;;;;;;6176436;23;20428;-80
2021/09/07 09:26:59;;;;;;;22.50;17.63;;;22.40;93.80;;;;;;6160998;23;20473;-81
2021/09/07 09:29:31;;;;;;;21.53;18.30;;;22.80;92.80;;;;;;6176101;23;20410;-82
2021/09/07 09:32:02;;;;;;;23.53;17.13;;;23.30;92.20;;;;;;6198951;23;20418;-81
2021/09/07 09:34:31;;;;;;;22.70;16.90;;;23.50;91.20;;;;;;6201272;23;20468;-83
2021/09/07 09:37:04;;;;;;;17.60;15.13;;;23.30;90.90;;;;;;6201622;23;20414;-82
2021/09/07 09:39:39;;;;;;;22.87;16.00;;;23.60;91.00;;;;;;6191419;23;20798;-81
2021/09/07 09:42:08;;;;;;;17.30;15.43;;;24.20;88.40;;;;;;6178101;23;20545;-80
2021/09/07 09:44:35;;;;;;;16.20;14.50;;;24.50;86.40;;;;;;6175279;23;20469;-80
2021/09/07 09:47:03;;;;;;;18.30;15.57;;;25.00;83.90;;;;;;6179508;23;20439;-80
2021/09/07 09:49:30;;;;;;;17.97;16.07;;;25.20;81.50;;;;;;6176801;23;20417;-79
2021/09/07 09:52:02;;;;;;;18.73;15.30;;;25.00;81.90;;;;;;6181759;23;20394;-80
2021/09/07 09:54:31;;;;;;;19.13;16.50;;;25.00;82.00;;;;;;6178627;23;20422;-81
2021/09/07 09:56:59;;;;;;;19.93;16.40;;;25.40;80.10;;;;;;6177838;23;20909;-80
2021/09/07 09:59:28;;;;;;;16.77;14.80;;;26.00;77.60;;;;;;6175272;23;20410;-81
2021/09/07 10:01:57;;;;;;;17.63;15.37;;;26.30;75.80;;;;;;6177635;23;20472;-81
2021/09/07 10:04:26;;;;;;;19.60;14.67;;;26.60;75.30;;;;;;6174816;23;20432;-80
2021/09/07 10:06:53;;;;;;;17.27;15.43;;;26.90;72.00;;;;;;6176273;23;20449;-81
2021/09/07 10:09:22;;;;;;;25.17;16.00;;;27.20;70.80;;;;;;6177007;23;20410;-82
2021/09/07 10:11:52;;;;;;;17.27;15.07;;;27.80;69.50;;;;;;6177316;23;20395;-80
2021/09/07 10:14:21;;;;;;;16.00;14.37;;;28.30;66.00;;;;;;6175363;23;20461;-80
2021/09/07 10:16:55;;;;;;;17.17;14.80;;;28.70;64.10;;;;;;6182347;23;20417;-82
2021/09/07 10:20:35;;;;;;;18.70;15.70;;;28.90;63.30;;;;;;6197024;23;20486;-80
2021/09/07 10:25:49;;;;;;;18.40;16.43;;;28.90;61.80;;;;;;6175560;23;20441;-80
2021/09/07 10:28:43;;;;;;;17.87;15.30;;;29.30;61.00;;;;;;6175544;23;20426;-80
2021/09/07 10:31:15;;;;;;;17.50;15.73;;;29.20;60.60;;;;;;6173344;23;20591;-80
2021/09/07 10:33:55;;;;;;;17.90;15.03;;;29.60;59.50;;;;;;6170735;23;20473;-80
2021/09/07 10:36:24;;;;;;;16.20;14.50;;;29.40;58.80;;;;;;6175714;23;20413;-81
2021/09/07 10:38:52;;;;;;;16.73;15.07;;;29.20;57.90;;;;;;6175707;23;20406;-81
2021/09/07 10:41:35;;;;;;;16.97;15.03;;;29.40;57.70;;;;;;6175526;23;20436;-81
2021/09/07 10:44:02;;;;;;;16.93;15.33;;;30.30;56.90;;;;;;6177326;23;20460;-81
2021/09/07 10:46:48;;;;;;;16.03;14.50;;;30.30;56.30;;;;;;6178162;23;20505;-81
2021/09/07 10:49:38;;;;;;;17.07;15.30;;;30.10;55.90;;;;;;6178509;23;20386;-80
2021/09/07 10:52:19;;;;;;;15.37;14.00;;;29.70;56.30;;;;;;6177981;23;20399;-81
2021/09/07 10:55:09;;;;;;;15.97;14.47;;;30.10;56.10;;;;;;6177867;23;20428;-80
2021/09/07 10:57:53;;;;;;;14.20;12.80;;;30.00;54.30;;;;;;6179800;23;20397;-81
2021/09/07 11:00:30;;;;;;;15.53;14.00;;;29.40;56.20;;;;;;6180042;23;20410;-81
2021/09/07 11:02:59;;;;;;;14.10;12.83;;;29.90;54.40;;;;;;6178941;23;20422;-80
2021/09/07 11:05:27;;;;;;;15.27;13.67;;;30.00;54.70;;;;;;6175722;23;20436;-82
2021/09/07 11:08:01;;;;;;;15.47;13.87;;;29.90;54.80;;;;;;6176451;23;20456;-80
2021/09/07 11:10:33;;;;;;;14.83;13.37;;;29.80;55.30;;;;;;6178101;23;20434;-80
2021/09/07 11:13:09;;;;;;;17.10;13.17;;;30.40;54.20;;;;;;6178067;23;20394;-81
2021/09/07 11:15:40;;;;;;;14.50;13.03;;;30.30;53.80;;;;;;6178943;23;20512;-80
2021/09/07 11:18:16;;;;;;;14.63;12.97;;;30.50;53.40;;;;;;6177163;23;20440;-79
2021/09/07 11:20:46;;;;;;;14.30;12.67;;;30.10;53.50;;;;;;6177553;23;20390;-80
2021/09/07 11:23:15;;;;;;;14.70;13.20;;;30.30;52.80;;;;;;6176007;23;20415;-78
2021/09/07 11:25:44;;;;;;;17.30;13.70;;;30.00;52.50;;;;;;6175055;23;20434;-80
2021/09/07 11:28:13;;;;;;;13.47;12.23;;;29.70;51.70;;;;;;6175664;23;20452;-80
2021/09/07 11:30:51;;;;;;;14.00;12.63;;;30.20;52.20;;;;;;6176118;23;20410;-80
2021/09/07 11:33:30;;;;;;;13.27;12.07;;;29.90;51.30;;;;;;6175298;23;20784;-80
2021/09/07 11:36:14;;;;;;;18.60;12.77;;;30.20;50.40;;;;;;6175466;23;20815;-80
2021/09/07 11:38:43;;;;;;;13.00;11.67;;;29.30;50.40;;;;;;6177656;23;20582;-81
2021/09/07 11:41:12;;;;;;;13.00;11.77;;;29.60;52.70;;;;;;6176643;23;20759;-80
2021/09/07 11:43:41;;;;;;;13.17;11.83;;;30.50;51.40;;;;;;6173898;23;20406;-80
2021/09/07 11:46:26;;;;;;;13.93;12.43;;;30.40;51.50;;;;;;6176796;23;20505;-81
2021/09/07 11:48:55;;;;;;;13.90;11.13;;;30.80;50.50;;;;;;6175696;23;20497;-81
2021/09/07 11:51:27;;;;;;;14.80;11.10;;;31.20;49.90;;;;;;6175097;23;20483;-80
2021/09/07 11:53:56;;;;;;;11.53;10.43;;;31.50;49.00;;;;;;6176732;23;20437;-81
2021/09/07 11:56:26;;;;;;;12.27;10.37;;;31.90;47.20;;;;;;6176402;23;20441;-80
2021/09/07 11:59:07;;;;;;;11.57;10.30;;;31.80;47.00;;;;;;6177533;23;20414;-81
2021/09/07 12:01:56;;;;;;;14.10;12.00;;;32.00;46.60;;;;;;6179108;23;20791;-82
2021/09/07 12:04:23;;;;;;;12.13;10.90;;;31.20;47.40;;;;;;6177885;23;20434;-81
2021/09/07 12:06:53;;;;;;;11.43;10.43;;;31.60;47.30;;;;;;6175923;23;20413;-78
2021/09/07 12:09:30;;;;;;;10.60;9.70;;;31.40;46.80;;;;;;6175625;23;20751;-79
2021/09/07 12:12:03;;;;;;;11.67;10.47;;;31.40;46.90;;;;;;6175467;23;20967;-80
2021/09/07 12:14:44;;;;;;;10.83;9.80;;;31.50;46.40;;;;;;6176845;23;20936;-79
2021/09/07 12:17:17;;;;;;;10.27;9.27;;;31.60;45.90;;;;;;6176932;23;20398;-81
2021/09/07 12:19:48;;;;;;;10.63;9.63;;;31.30;46.60;;;;;;6177625;23;20574;-80
2021/09/07 12:22:20;;;;;;;11.30;9.90;;;31.90;46.20;;;;;;6177544;23;20405;-80
2021/09/07 12:25:13;;;;;;;12.53;11.27;;;31.30;46.30;;;;;;6175354;23;20966;-79
2021/09/07 12:27:42;;;;;;;10.27;9.20;;;31.50;46.90;;;;;;6179446;23;20521;-80
2021/09/07 12:30:16;;;;;;;10.83;9.83;;;31.90;46.00;;;;;;6175864;23;20406;-81
2021/09/07 12:32:54;;;;;;;11.70;10.50;;;31.50;46.20;;;;;;6177339;23;20401;-80
2021/09/07 12:35:28;;;;;;;9.10;8.30;;;32.20;44.80;;;;;;6177706;23;20434;-81
2021/09/07 12:37:56;;;;;;;7.77;6.97;;;31.70;44.30;;;;;;6174302;23;21275;-79
2021/09/07 12:40:23;;;;;;;9.00;8.10;;;31.50;43.60;;;;;;6182385;23;20453;-80
2021/09/07 12:42:50;;;;;;;12.80;8.20;;;30.80;45.50;;;;;;6174887;23;20893;-80